createdAt,value
2022-08-05T00:02:07.886Z,1.98
2022-08-05T00:04:57.155Z,1.75
2022-08-05T00:07:59.905Z,2.05
2022-08-05T00:10:46.649Z,1.50
2022-08-05T00:13:39.175Z,1.70
2022-08-05T00:16:36.314Z,1.58
2022-08-05T00:19:33.421Z,1.75
2022-08-05T00:22:26.509Z,1.60
2022-08-05T00:25:12.775Z,1.42
2022-08-05T00:27:58.686Z,2.05
2022-08-05T00:30:44.520Z,1.63
2022-08-05T00:34:55.795Z,1.98
2022-08-05T00:37:10.520Z,1.90
2022-08-05T00:39:58.794Z,1.58
2022-08-05T00:42:49.114Z,2.00
2022-08-05T00:45:39.441Z,1.80
2022-08-05T00:48:31.641Z,1.85
2022-08-05T00:51:49.906Z,1.90
2022-08-05T00:54:28.147Z,1.65
2022-08-05T00:57:15.811Z,2.17
2022-08-05T01:00:11.149Z,2.08
2022-08-05T01:03:00.062Z,1.73
2022-08-05T01:05:45.611Z,1.80
2022-08-05T01:08:42.759Z,2.00
2022-08-05T01:11:39.441Z,2.28
2022-08-05T01:14:49.570Z,2.10
2022-08-05T01:17:53.687Z,2.35
2022-08-05T01:21:38.139Z,2.00
2022-08-05T01:24:50.267Z,2.22
2022-08-05T01:28:17.095Z,1.98
2022-08-05T01:31:18.269Z,1.88
2022-08-05T01:34:13.932Z,2.05
2022-08-05T01:37:33.022Z,2.13
2022-08-05T01:40:27.921Z,2.38
2022-08-05T01:43:21.923Z,1.83
2022-08-05T01:46:37.850Z,2.10
2022-08-05T01:49:24.253Z,2.40
2022-08-05T01:52:17.501Z,2.33
2022-08-05T01:55:10.202Z,1.80
2022-08-05T01:58:09.365Z,1.95
2022-08-05T02:01:01.681Z,2.22
2022-08-05T02:03:49.102Z,2.30
2022-08-05T02:06:38.463Z,2.20
2022-08-05T02:09:24.684Z,2.35
2022-08-05T02:12:23.648Z,3.00
2022-08-05T02:15:24.018Z,2.58
2022-08-05T02:18:43.480Z,2.60
2022-08-05T02:21:43.423Z,2.35
2022-08-05T02:24:38.315Z,2.30
2022-08-05T02:27:29.903Z,2.42
2022-08-05T02:30:54.191Z,2.40
2022-08-05T02:33:57.423Z,2.30
2022-08-05T02:36:54.693Z,2.72
2022-08-05T02:39:42.135Z,2.47
2022-08-05T02:42:36.338Z,2.50
2022-08-05T02:45:24.486Z,2.53
2022-08-05T02:48:12.984Z,2.50
2022-08-05T02:51:00.837Z,2.45
2022-08-05T02:53:47.305Z,2.55
2022-08-05T02:56:43.509Z,2.72
2022-08-05T02:59:34.604Z,2.05
2022-08-05T03:02:40.496Z,3.00
2022-08-05T03:06:54.598Z,2.53
2022-08-05T03:08:36.991Z,2.88
2022-08-05T03:11:54.738Z,2.80
2022-08-05T03:14:32.142Z,2.95
2022-08-05T03:17:17.584Z,2.78
2022-08-05T03:20:07.568Z,2.80
2022-08-05T03:22:57.567Z,2.55
2022-08-05T03:26:04.802Z,2.22
2022-08-05T03:28:49.749Z,2.60
2022-08-05T03:31:56.476Z,2.33
2022-08-05T03:34:49.607Z,3.20
2022-08-05T03:37:45.734Z,2.90
2022-08-05T03:40:32.825Z,3.70
2022-08-05T03:44:09.870Z,3.28
2022-08-05T03:46:29.747Z,2.92
2022-08-05T03:49:17.874Z,3.08
2022-08-05T03:52:37.708Z,2.80
2022-08-05T03:56:01.783Z,3.05
2022-08-05T03:58:41.152Z,3.35
2022-08-05T04:01:32.239Z,2.60
2022-08-05T04:04:21.674Z,3.10
2022-08-05T04:07:12.266Z,3.00
2022-08-05T04:09:59.628Z,3.00
2022-08-05T04:12:49.088Z,3.08
2022-08-05T04:15:36.211Z,3.25
2022-08-05T04:18:25.474Z,3.13
2022-08-05T04:21:11.467Z,3.60
2022-08-05T04:24:06.600Z,3.70
2022-08-05T04:26:54.638Z,3.45
2022-08-05T04:29:43.926Z,4.40
2022-08-05T04:32:33.314Z,4.30
2022-08-05T04:35:19.821Z,3.85
2022-08-05T04:38:06.852Z,3.80
2022-08-05T04:40:52.522Z,4.57
2022-08-05T04:43:46.501Z,4.10
2022-08-05T04:46:32.350Z,4.47
2022-08-05T04:49:18.139Z,4.53
2022-08-05T04:52:10.328Z,4.43
2022-08-05T04:54:57.897Z,5.78
2022-08-05T04:57:47.554Z,5.20
2022-08-05T05:00:35.616Z,5.53
2022-08-05T05:03:21.432Z,5.57
2022-08-05T05:06:40.199Z,5.50
2022-08-05T05:09:17.712Z,5.10
2022-08-05T05:12:04.903Z,4.97
2022-08-05T05:14:51.958Z,5.50
2022-08-05T05:17:57.114Z,5.50
2022-08-05T05:20:47.673Z,4.93
2022-08-05T05:24:01.876Z,5.00
2022-08-05T05:26:41.809Z,5.30
2022-08-05T05:30:03.593Z,4.80
2022-08-05T05:32:40.803Z,5.45
2022-08-05T05:35:26.517Z,5.13
2022-08-05T05:38:13.451Z,4.95
2022-08-05T05:41:00.621Z,4.82
2022-08-05T05:43:56.630Z,4.88
2022-08-05T05:46:43.395Z,5.10
2022-08-05T05:49:29.158Z,5.00
2022-08-05T05:52:28.667Z,5.25
2022-08-05T05:55:19.069Z,4.80
2022-08-05T05:58:04.897Z,4.70
2022-08-05T06:00:50.469Z,4.28
2022-08-05T06:03:53.789Z,4.00
2022-08-05T06:06:47.753Z,3.40
2022-08-05T06:09:52.717Z,3.20
2022-08-05T06:12:42.313Z,3.05
2022-08-05T06:16:30.014Z,3.13
